Accueil
METAR-TAF:

METAR-TAF

Aéroports :

Bilbao, Espagne

Aéroport international de Bilbao

latitude: 43-18N, longitude: 002-56W, altitude: 42 m

Observation

Le bulletin a été fait il y a 34 minutes, à 00:00 UTC
Vent 2 kt de direction variable
Température 5°C
Humidité 81%
Pression 1009 hPa
Visibilité 10 km ou plus

METAR: LEBB 240000Z AUTO VRB02KT 9999 BKN036/// 05/02 Q1009

Heure: 01:34 (00:34 UTC)

Prévision

Le bulletin a été fait il y a 1 heure et 34 minutes, à 23:00 UTC
Prévision valable du 24 à 00 UTC au 24 à 24 UTC
Vent 4 kt de sud-est
Visibilité 10 km ou plus
Nuages épars à une hauteur de 3500 ft
Probabilité 30% :
Temporairement
du 24 à 05 UTC au 24 à 07 UTC
Visibilité: 4500 m
brume

TAF: LEBB 232300Z 2400/2424 14004KT 9999 SCT035 TX10/2414Z TNM00/2406Z PROB30 TEMPO 2405/2407 4500 BR

Observations et prévisions météorologiques de plus de 4000 aéroports (messages METAR et TAF).

Les stations disponibles sont représentées par des disques jaunes et rouges sur la carte.

Passer la souris dessus pour voir le nom de la station.

Cliquer dessus pour voir les observations et prévisions météorologiques.

Pour changer de carte: cliquez sur les boutons verts avec une croix noire pour zoomer, sur le bouton vert avec un tiret pour effectuer un zoom arrière, ou sur les flèches vertes pour les cartes adjacentes.


METAR-TAF: